Time;durP1;ratioP1;P1;durP2;ratioP2;P2;SDS_P1;SDS_P2;PMS_P1;PMS_P2;Temp;Humidity;BMP_temperature;BMP_pressure;BME280_temperature;BME280_humidity;BME280_pressure;Samples;Min_cycle;Max_cycle;Signal;HPM_P1;HPM_P2
2023/08/08 00:00:34;;;;;;;6.05;1.88;;;;;;;-144.48;100.00;62369.91;4968710;28;20066;-69
2023/08/08 00:02:59;;;;;;;6.20;1.75;;;;;;;-144.48;100.00;62369.91;4968412;28;20043;-68
2023/08/08 00:05:24;;;;;;;6.05;1.98;;;;;;;-144.48;100.00;62369.91;4971389;28;20118;-68
2023/08/08 00:07:50;;;;;;;13.93;2.05;;;;;;;-144.48;100.00;62369.91;4971026;28;20422;-68
2023/08/08 00:10:15;;;;;;;7.05;1.80;;;;;;;-144.48;100.00;62369.91;4971380;28;20030;-70
2023/08/08 00:12:41;;;;;;;4.43;1.75;;;;;;;-144.48;100.00;62369.91;4971927;28;20038;-68
2023/08/08 00:15:06;;;;;;;4.60;1.38;;;;;;;-144.48;100.00;62369.91;4978636;28;20035;-64
2023/08/08 00:17:32;;;;;;;7.80;1.90;;;;;;;-144.48;100.00;62369.91;4981729;28;20018;-67
2023/08/08 00:19:58;;;;;;;4.43;1.65;;;;;;;-144.48;100.00;62369.91;4971350;28;20037;-69
2023/08/08 00:22:23;;;;;;;8.40;2.20;;;;;;;-144.48;100.00;62369.91;4986858;28;20149;-68
2023/08/08 00:24:48;;;;;;;5.60;1.58;;;;;;;-144.48;100.00;62369.91;4971049;28;20027;-66
2023/08/08 00:27:14;;;;;;;11.70;1.60;;;;;;;-144.48;100.00;62369.91;4971408;28;20110;-68
2023/08/08 00:29:39;;;;;;;6.75;1.60;;;;;;;-144.48;100.00;62369.91;4971537;28;20522;-69
2023/08/08 00:32:05;;;;;;;5.00;1.90;;;;;;;-144.48;100.00;62369.91;4971467;28;20042;-69
2023/08/08 00:34:30;;;;;;;9.32;1.67;;;;;;;-144.48;100.00;62369.91;4971009;28;20023;-69
2023/08/08 00:36:55;;;;;;;10.30;2.10;;;;;;;-144.48;100.00;62369.91;4971827;28;20519;-65
2023/08/08 00:39:21;;;;;;;8.63;2.35;;;;;;;-144.48;100.00;62369.91;4973026;28;20129;-68
2023/08/08 00:41:46;;;;;;;5.45;1.65;;;;;;;-144.48;100.00;62369.91;4976025;28;20109;-68
2023/08/08 00:44:11;;;;;;;6.95;1.83;;;;;;;-144.48;100.00;62369.91;4971024;28;20038;-69
2023/08/08 00:46:37;;;;;;;7.25;2.13;;;;;;;-144.48;100.00;62369.91;4970880;28;20027;-69
2023/08/08 00:49:02;;;;;;;4.65;1.77;;;;;;;-144.48;100.00;62369.91;4970937;28;20074;-69
2023/08/08 00:51:28;;;;;;;5.93;1.65;;;;;;;-144.48;100.00;62369.91;4970936;28;20054;-67
2023/08/08 00:53:54;;;;;;;7.13;2.30;;;;;;;-144.48;100.00;62369.91;4970771;28;20404;-69
2023/08/08 00:56:20;;;;;;;3.90;1.60;;;;;;;-144.48;100.00;62369.91;4971098;28;20033;-69
2023/08/08 00:58:46;;;;;;;6.30;1.85;;;;;;;-144.48;100.00;62369.91;4971439;28;20027;-65
2023/08/08 01:01:12;;;;;;;6.30;2.00;;;;;;;-144.48;100.00;62369.91;4970691;28;20041;-70
2023/08/08 01:03:37;;;;;;;6.35;1.70;;;;;;;-144.48;100.00;62369.91;4970253;28;20678;-67
2023/08/08 01:06:10;;;;;;;6.75;1.90;;;;;;;-144.48;100.00;62369.91;4970395;28;20043;-67
2023/08/08 01:08:42;;;;;;;4.63;1.52;;;;;;;-144.48;100.00;62369.91;4970747;28;20030;-66
2023/08/08 01:11:08;;;;;;;5.68;1.80;;;;;;;-144.48;100.00;62369.91;4970945;28;20042;-68
2023/08/08 01:13:35;;;;;;;8.38;1.80;;;;;;;-144.48;100.00;62369.91;4969555;28;20647;-68
2023/08/08 01:16:03;;;;;;;5.22;1.90;;;;;;;-144.48;100.00;62369.91;4981735;28;20038;-66
2023/08/08 01:18:29;;;;;;;6.35;2.00;;;;;;;-144.48;100.00;62369.91;4975558;28;20023;-70
2023/08/08 01:20:56;;;;;;;4.13;1.70;;;;;;;-144.48;100.00;62369.91;4970661;28;20599;-68
2023/08/08 01:23:43;;;;;;;3.85;1.92;;;;;;;-144.48;100.00;62369.91;4970901;28;20027;-69
2023/08/08 01:26:09;;;;;;;6.80;1.88;;;;;;;-144.48;100.00;62369.91;4970823;28;20027;-68
2023/08/08 01:28:35;;;;;;;4.68;1.80;;;;;;;-144.48;100.00;62369.91;4970422;28;20137;-68
2023/08/08 01:31:00;;;;;;;8.55;2.33;;;;;;;-144.48;100.00;62369.91;4970619;28;20031;-65
2023/08/08 01:33:26;;;;;;;3.70;1.50;;;;;;;-144.48;100.00;62369.91;4969558;28;20030;-67
2023/08/08 01:36:00;;;;;;;6.03;1.88;;;;;;;-144.48;100.00;62369.91;4969449;28;20501;-67
2023/08/08 01:38:43;;;;;;;8.48;1.70;;;;;;;-144.48;100.00;62369.91;4972701;28;20042;-68
2023/08/08 01:41:08;;;;;;;7.10;1.80;;;;;;;-144.48;100.00;62369.91;4974476;28;20026;-68
2023/08/08 01:43:37;;;;;;;6.13;2.05;;;;;;;-144.48;100.00;62369.91;4992265;23;20060;-69
2023/08/08 01:46:04;;;;;;;5.00;1.25;;;;;;;-144.48;100.00;62369.91;5008862;28;20029;-69
2023/08/08 01:48:29;;;;;;;3.08;1.52;;;;;;;-144.48;100.00;62369.91;5004812;28;20546;-68
2023/08/08 01:50:54;;;;;;;8.90;1.88;;;;;;;-144.48;100.00;62369.91;5010213;28;20061;-67
2023/08/08 01:53:20;;;;;;;11.15;1.80;;;;;;;-144.48;100.00;62369.91;5001277;28;20046;-70
2023/08/08 01:55:45;;;;;;;11.27;2.30;;;;;;;-144.48;100.00;62369.91;5006057;28;20734;-68
2023/08/08 01:58:11;;;;;;;5.35;1.80;;;;;;;-144.48;100.00;62369.91;5010681;28;20038;-69
2023/08/08 02:00:36;;;;;;;9.13;2.60;;;;;;;-144.48;100.00;62369.91;5009520;28;20021;-69
2023/08/08 02:03:02;;;;;;;4.55;1.70;;;;;;;-144.48;100.00;62369.91;5010535;28;20057;-68
2023/08/08 02:05:28;;;;;;;6.30;2.08;;;;;;;-144.48;100.00;62369.91;5009223;28;20045;-69
2023/08/08 02:07:53;;;;;;;4.60;1.58;;;;;;;-144.48;100.00;62369.91;5009268;28;20026;-67
2023/08/08 02:10:18;;;;;;;10.70;3.88;;;;;;;-144.48;100.00;62369.91;5010578;28;20030;-71
2023/08/08 02:12:44;;;;;;;2.78;1.33;;;;;;;-144.48;100.00;62369.91;5010485;28;20022;-67
2023/08/08 02:15:09;;;;;;;5.50;1.85;;;;;;;-144.48;100.00;62369.91;5009845;28;20032;-68
2023/08/08 02:17:37;;;;;;;3.08;1.48;;;;;;;-144.48;100.00;62369.91;5010722;28;20100;-68
2023/08/08 02:20:03;;;;;;;6.35;1.73;;;;;;;-144.48;100.00;62369.91;5009823;28;20026;-68
2023/08/08 02:22:29;;;;;;;6.22;2.10;;;;;;;-144.48;100.00;62369.91;5010529;28;20030;-70
2023/08/08 02:24:54;;;;;;;6.05;1.77;;;;;;;-144.48;100.00;62369.91;5009857;28;20032;-67
2023/08/08 02:27:19;;;;;;;9.75;1.83;;;;;;;-144.48;100.00;62369.91;5009857;28;20026;-67
2023/08/08 02:29:45;;;;;;;4.15;1.80;;;;;;;-144.48;100.00;62369.91;5010166;28;20036;-67
2023/08/08 02:32:10;;;;;;;8.40;2.08;;;;;;;-144.48;100.00;62369.91;5010409;28;20637;-68
2023/08/08 02:34:36;;;;;;;3.67;1.20;;;;;;;-144.48;100.00;62369.91;5009459;28;20030;-69
2023/08/08 02:37:03;;;;;;;6.05;2.00;;;;;;;-144.48;100.00;62369.91;5008304;28;20091;-67
2023/08/08 02:39:29;;;;;;;9.38;2.10;;;;;;;-144.48;100.00;62369.91;5008495;28;20060;-70
2023/08/08 02:41:54;;;;;;;7.38;1.80;;;;;;;-144.48;100.00;62369.91;5010135;28;20058;-67
2023/08/08 02:44:19;;;;;;;3.53;1.63;;;;;;;-144.48;100.00;62369.91;5009112;28;20036;-66
2023/08/08 02:46:45;;;;;;;4.50;2.15;;;;;;;-144.48;100.00;62369.91;5010085;28;20030;-68
2023/08/08 02:49:10;;;;;;;4.38;1.50;;;;;;;-144.48;100.00;62369.91;5008109;28;20076;-70
2023/08/08 02:51:35;;;;;;;5.00;1.65;;;;;;;-144.48;100.00;62369.91;5009353;28;20053;-65
2023/08/08 02:54:01;;;;;;;4.30;1.90;;;;;;;-144.48;100.00;62369.91;5009852;28;20432;-67
2023/08/08 02:56:26;;;;;;;2.65;1.48;;;;;;;-144.48;100.00;62369.91;5008925;28;20037;-68
2023/08/08 02:58:52;;;;;;;7.28;1.92;;;;;;;-144.48;100.00;62369.91;5009288;28;20036;-68
2023/08/08 03:01:17;;;;;;;5.03;1.33;;;;;;;-144.48;100.00;62369.91;5009764;28;20108;-69
2023/08/08 03:03:42;;;;;;;6.60;1.77;;;;;;;-144.48;100.00;62369.91;5009808;28;20541;-69
2023/08/08 03:06:08;;;;;;;4.32;1.58;;;;;;;-144.48;100.00;62369.91;5009698;28;20116;-68
2023/08/08 03:08:33;;;;;;;3.55;2.05;;;;;;;-144.48;100.00;62369.91;5009756;28;20034;-68
2023/08/08 03:10:59;;;;;;;4.78;1.80;;;;;;;-144.48;100.00;62369.91;5008870;28;20061;-66
2023/08/08 03:13:25;;;;;;;8.05;1.58;;;;;;;-144.48;100.00;62369.91;5010117;28;20488;-66
2023/08/08 03:15:50;;;;;;;7.43;1.70;;;;;;;-144.48;100.00;62369.91;5009251;28;20448;-68
2023/08/08 03:18:16;;;;;;;7.07;2.17;;;;;;;-144.48;100.00;62369.91;5008630;28;20026;-73
2023/08/08 03:20:41;;;;;;;3.97;1.70;;;;;;;-144.48;100.00;62369.91;5009028;28;20502;-69
2023/08/08 03:23:06;;;;;;;2.88;1.65;;;;;;;-144.48;100.00;62369.91;5008392;28;20033;-67
2023/08/08 03:25:32;;;;;;;5.45;1.90;;;;;;;-144.48;100.00;62369.91;5009088;28;20549;-69
2023/08/08 03:27:57;;;;;;;4.88;1.55;;;;;;;-144.48;100.00;62369.91;5009356;28;20029;-69
2023/08/08 03:30:22;;;;;;;11.73;2.30;;;;;;;-144.48;100.00;62369.91;5009161;28;20582;-69
2023/08/08 03:32:48;;;;;;;7.85;2.00;;;;;;;-144.48;100.00;62369.91;5009828;28;20025;-69
2023/08/08 03:35:14;;;;;;;5.03;1.75;;;;;;;-144.48;100.00;62369.91;5008732;28;20376;-67
2023/08/08 03:37:40;;;;;;;5.22;1.77;;;;;;;-144.48;100.00;62369.91;5007808;28;20022;-67
2023/08/08 03:40:07;;;;;;;7.13;1.80;;;;;;;-144.48;100.00;62369.91;5013163;28;20041;-69
2023/08/08 03:42:33;;;;;;;4.90;1.50;;;;;;;-144.48;100.00;62369.91;5012419;28;20030;-71
2023/08/08 03:44:58;;;;;;;5.53;1.73;;;;;;;-144.48;100.00;62369.91;5012877;28;20036;-68
2023/08/08 03:47:24;;;;;;;3.50;1.70;;;;;;;-144.48;100.00;62369.91;5012030;28;20388;-66
2023/08/08 03:49:49;;;;;;;7.47;2.00;;;;;;;-144.48;100.00;62369.91;5013002;28;20460;-70
2023/08/08 03:52:14;;;;;;;4.22;1.75;;;;;;;-144.48;100.00;62369.91;5012569;28;20611;-68
2023/08/08 03:54:40;;;;;;;7.40;1.80;;;;;;;-144.48;100.00;62369.91;5012978;28;20022;-67
2023/08/08 03:57:05;;;;;;;4.32;1.70;;;;;;;-144.48;100.00;62369.91;5012181;28;20034;-72
2023/08/08 03:59:31;;;;;;;5.10;1.92;;;;;;;-144.48;100.00;62369.91;5011725;28;20477;-68
2023/08/08 04:01:56;;;;;;;8.38;1.90;;;;;;;-144.48;100.00;62369.91;5012682;28;20043;-70
2023/08/08 04:04:21;;;;;;;3.17;1.80;;;;;;;-144.48;100.00;62369.91;5012619;28;20527;-69
2023/08/08 04:06:47;;;;;;;4.45;1.70;;;;;;;-144.48;100.00;62369.91;5012947;28;20030;-69
2023/08/08 04:09:12;;;;;;;7.57;1.70;;;;;;;-144.48;100.00;62369.91;5012914;28;20451;-68
2023/08/08 04:11:38;;;;;;;7.55;1.70;;;;;;;-144.48;100.00;62369.91;5012947;28;20487;-69
2023/08/08 04:14:03;;;;;;;4.90;2.30;;;;;;;-144.48;100.00;62369.91;5012355;28;20028;-70
2023/08/08 04:16:29;;;;;;;8.80;1.98;;;;;;;-144.48;100.00;62369.91;5012661;28;20109;-69
2023/08/08 04:18:54;;;;;;;5.22;1.40;;;;;;;-144.48;100.00;62369.91;5013043;28;20053;-71
2023/08/08 04:21:19;;;;;;;3.45;1.77;;;;;;;-144.48;100.00;62369.91;5012433;28;20720;-68
2023/08/08 04:23:45;;;;;;;7.00;1.80;;;;;;;-144.48;100.00;62369.91;5012374;28;20101;-70
2023/08/08 04:26:10;;;;;;;4.07;1.60;;;;;;;-144.48;100.00;62369.91;5012727;28;20475;-70
2023/08/08 04:28:35;;;;;;;3.90;1.40;;;;;;;-144.48;100.00;62369.91;5012236;28;20038;-68
2023/08/08 04:31:01;;;;;;;5.18;1.90;;;;;;;-144.48;100.00;62369.91;5012112;28;20028;-69
2023/08/08 04:33:26;;;;;;;9.80;2.08;;;;;;;-144.48;100.00;62369.91;5010854;28;20026;-68
2023/08/08 04:35:52;;;;;;;5.03;1.63;;;;;;;-144.48;100.00;62369.91;5011594;28;20038;-67
2023/08/08 04:38:17;;;;;;;4.30;1.50;;;;;;;-144.48;100.00;62369.91;5012466;28;20024;-69
2023/08/08 04:40:43;;;;;;;5.05;1.48;;;;;;;-144.48;100.00;62369.91;5012115;28;20151;-68
2023/08/08 04:43:08;;;;;;;6.82;1.83;;;;;;;-144.48;100.00;62369.91;5012033;28;20038;-70
2023/08/08 04:45:33;;;;;;;8.43;1.50;;;;;;;-144.48;100.00;62369.91;5012664;28;20644;-72
2023/08/08 04:47:59;;;;;;;7.45;1.52;;;;;;;-144.48;100.00;62369.91;5012462;28;20029;-68
2023/08/08 04:50:24;;;;;;;4.85;1.90;;;;;;;-144.48;100.00;62369.91;5011232;28;20032;-70
2023/08/08 04:52:49;;;;;;;5.50;1.95;;;;;;;-144.48;100.00;62369.91;5011070;28;20041;-67
2023/08/08 04:55:15;;;;;;;5.47;1.35;;;;;;;-144.48;100.00;62369.91;5011544;28;20387;-69
2023/08/08 04:57:40;;;;;;;4.72;1.70;;;;;;;-144.48;100.00;62369.91;5010908;28;20014;-67
2023/08/08 05:00:08;;;;;;;5.32;1.90;;;;;;;-144.48;100.00;62369.91;5011911;28;20057;-69
2023/08/08 05:02:34;;;;;;;4.70;1.73;;;;;;;-144.48;100.00;62369.91;5011914;28;20036;-70
2023/08/08 05:05:00;;;;;;;4.93;1.63;;;;;;;-144.48;100.00;62369.91;5008868;28;20630;-70
2023/08/08 05:07:26;;;;;;;5.32;1.80;;;;;;;-144.48;100.00;62369.91;5004569;28;20037;-69
2023/08/08 05:09:52;;;;;;;3.00;1.30;;;;;;;-144.48;100.00;62369.91;5010363;28;20030;-69
2023/08/08 05:12:17;;;;;;;8.80;1.60;;;;;;;-144.48;100.00;62369.91;4993739;28;20117;-70
2023/08/08 05:14:42;;;;;;;6.03;1.50;;;;;;;-144.48;100.00;62369.91;5010724;28;20029;-68
2023/08/08 05:17:08;;;;;;;2.88;1.33;;;;;;;-144.48;100.00;62369.91;5011452;28;20026;-68
2023/08/08 05:19:33;;;;;;;1.98;1.23;;;;;;;-144.48;100.00;62369.91;5011250;28;20476;-70
2023/08/08 05:21:59;;;;;;;4.78;1.52;;;;;;;-144.48;100.00;62369.91;5006368;28;20034;-70
2023/08/08 05:24:25;;;;;;;8.20;1.80;;;;;;;-144.48;100.00;62369.91;4996414;28;20061;-68
2023/08/08 05:26:51;;;;;;;3.30;1.45;;;;;;;-144.48;100.00;62369.91;5008540;28;20057;-69
2023/08/08 05:29:16;;;;;;;3.03;1.50;;;;;;;-144.48;100.00;62369.91;5010615;28;20492;-68
2023/08/08 05:31:41;;;;;;;3.30;1.52;;;;;;;-144.48;100.00;62369.91;5009548;28;20040;-69
2023/08/08 05:34:07;;;;;;;4.70;1.40;;;;;;;-144.48;100.00;62369.91;5003302;28;20033;-67
2023/08/08 05:36:32;;;;;;;4.93;1.42;;;;;;;-144.48;100.00;62369.91;5003090;28;20026;-68
2023/08/08 05:38:58;;;;;;;2.47;1.40;;;;;;;-144.48;100.00;62369.91;5010214;28;20064;-72
2023/08/08 05:41:23;;;;;;;6.15;1.63;;;;;;;-144.48;100.00;62369.91;5010389;28;20029;-69
2023/08/08 05:43:49;;;;;;;3.28;1.25;;;;;;;-144.48;100.00;62369.91;5010690;28;20152;-69
2023/08/08 05:46:14;;;;;;;3.50;1.30;;;;;;;-144.48;100.00;62369.91;5010028;28;20053;-68
2023/08/08 05:48:39;;;;;;;6.47;1.60;;;;;;;-144.48;100.00;62369.91;5010860;28;20053;-66
2023/08/08 05:51:05;;;;;;;2.15;1.25;;;;;;;-144.48;100.00;62369.91;5010586;28;20041;-67
2023/08/08 05:53:32;;;;;;;4.05;1.50;;;;;;;-144.48;100.00;62369.91;5009608;28;20087;-69
2023/08/08 05:55:57;;;;;;;9.70;2.03;;;;;;;-144.48;100.00;62369.91;5010613;28;20718;-70
2023/08/08 05:58:23;;;;;;;8.13;2.28;;;;;;;-144.48;100.00;62369.91;5006949;28;20110;-69
2023/08/08 06:00:48;;;;;;;5.57;1.77;;;;;;;-144.48;100.00;62369.91;5002970;28;20018;-69
2023/08/08 06:03:13;;;;;;;3.40;1.58;;;;;;;-144.48;100.00;62369.91;5003476;28;20092;-71
2023/08/08 06:05:39;;;;;;;3.40;1.45;;;;;;;-144.48;100.00;62369.91;5009994;28;20068;-65
2023/08/08 06:08:07;;;;;;;3.47;1.30;;;;;;;-144.48;100.00;62369.91;5010398;28;20053;-66
2023/08/08 06:10:32;;;;;;;2.40;1.30;;;;;;;-144.48;100.00;62369.91;5001540;28;20693;-70
2023/08/08 06:12:58;;;;;;;3.67;1.40;;;;;;;-144.48;100.00;62369.91;5010220;28;20168;-70
2023/08/08 06:15:23;;;;;;;4.45;1.17;;;;;;;-144.48;100.00;62369.91;5009295;28;20026;-68
2023/08/08 06:17:48;;;;;;;3.97;1.20;;;;;;;-144.48;100.00;62369.91;5010305;28;20029;-66
2023/08/08 06:20:14;;;;;;;7.75;1.80;;;;;;;-144.48;100.00;62369.91;5007229;28;20026;-70
2023/08/08 06:22:41;;;;;;;4.93;1.50;;;;;;;-144.48;100.00;62369.91;5009667;28;20080;-69
2023/08/08 06:25:07;;;;;;;2.95;1.38;;;;;;;-144.48;100.00;62369.91;5009619;28;20628;-70
2023/08/08 06:27:32;;;;;;;7.35;1.67;;;;;;;-144.48;100.00;62369.91;5009599;28;20057;-70
2023/08/08 06:29:58;;;;;;;3.70;1.48;;;;;;;-144.48;100.00;62369.91;5008576;28;20130;-67
2023/08/08 06:32:24;;;;;;;1.98;1.25;;;;;;;-144.48;100.00;62369.91;5008504;28;20030;-67
2023/08/08 06:34:49;;;;;;;2.55;1.17;;;;;;;-144.48;100.00;62369.91;5006130;28;20076;-70
2023/08/08 06:37:14;;;;;;;2.60;1.17;;;;;;;-144.48;100.00;62369.91;5009762;28;20038;-71
2023/08/08 06:39:40;;;;;;;9.52;1.45;;;;;;;-144.48;100.00;62369.91;5008737;28;20057;-70
2023/08/08 06:42:06;;;;;;;2.80;1.30;;;;;;;-144.48;100.00;62369.91;5010231;28;20030;-70
2023/08/08 06:44:42;;;;;;;6.05;1.50;;;;;;;-144.48;100.00;62369.91;5003868;28;20026;-73
2023/08/08 06:47:07;;;;;;;5.65;1.52;;;;;;;-144.48;100.00;62369.91;5008451;28;20024;-71
2023/08/08 06:49:33;;;;;;;4.90;1.55;;;;;;;-144.48;100.00;62369.91;5007730;28;20029;-70
2023/08/08 06:51:58;;;;;;;3.08;1.40;;;;;;;-144.48;100.00;62369.91;5009961;28;20037;-70
2023/08/08 06:54:23;;;;;;;2.67;1.25;;;;;;;-144.48;100.00;62369.91;5009420;28;20496;-70
2023/08/08 06:56:49;;;;;;;3.25;1.50;;;;;;;-144.48;100.00;62369.91;5009470;28;20056;-68
2023/08/08 06:59:14;;;;;;;4.78;1.60;;;;;;;-144.48;100.00;62369.91;5007675;28;20022;-67
2023/08/08 07:01:40;;;;;;;3.60;1.48;;;;;;;-144.48;100.00;62369.91;5006055;28;20081;-69
2023/08/08 07:04:05;;;;;;;2.10;1.15;;;;;;;-144.48;100.00;62369.91;5004681;28;20047;-69
2023/08/08 07:06:31;;;;;;;2.92;1.20;;;;;;;-144.48;100.00;62369.91;5007175;28;20033;-70
2023/08/08 07:08:56;;;;;;;5.75;1.30;;;;;;;-144.48;100.00;62369.91;5004118;28;20128;-71
2023/08/08 07:11:22;;;;;;;8.80;2.03;;;;;;;-144.48;100.00;62369.91;5004549;28;20724;-69
2023/08/08 07:13:47;;;;;;;4.03;1.60;;;;;;;-144.48;100.00;62369.91;5000064;28;20166;-67
2023/08/08 07:16:12;;;;;;;3.38;1.40;;;;;;;-144.48;100.00;62369.91;5008678;28;20512;-70
2023/08/08 07:18:38;;;;;;;6.40;1.40;;;;;;;-144.48;100.00;62369.91;5010035;28;20045;-66
2023/08/08 07:21:03;;;;;;;5.43;1.40;;;;;;;-144.48;100.00;62369.91;5008190;28;20040;-66
2023/08/08 07:23:29;;;;;;;5.32;1.35;;;;;;;-144.48;100.00;62369.91;5008980;28;20491;-69
2023/08/08 07:25:54;;;;;;;4.03;1.40;;;;;;;-144.48;100.00;62369.91;5000582;28;20029;-70
2023/08/08 07:28:20;;;;;;;3.95;1.40;;;;;;;-144.48;100.00;62369.91;5001131;28;20042;-66
2023/08/08 07:30:45;;;;;;;4.18;1.30;;;;;;;-144.48;100.00;62369.91;5009219;28;20045;-70
2023/08/08 07:33:10;;;;;;;2.75;1.27;;;;;;;-144.48;100.00;62369.91;4999493;28;20033;-69
2023/08/08 07:35:36;;;;;;;8.18;1.23;;;;;;;-144.48;100.00;62369.91;5001409;28;20048;-66
2023/08/08 07:38:01;;;;;;;3.70;1.33;;;;;;;-144.48;100.00;62369.91;5005492;28;20101;-71
2023/08/08 07:40:27;;;;;;;2.47;1.10;;;;;;;-144.48;100.00;62369.91;5005555;28;20399;-65
2023/08/08 07:42:52;;;;;;;3.58;1.17;;;;;;;-144.48;100.00;62369.91;5007990;28;20033;-69
2023/08/08 07:45:18;;;;;;;4.00;1.50;;;;;;;-144.48;100.00;62369.91;5041581;23;20128;-68
2023/08/08 07:47:44;;;;;;;6.75;2.13;;;;;;;-144.48;100.00;62369.91;5031910;28;20044;-68
2023/08/08 07:50:11;;;;;;;3.75;1.25;;;;;;;-144.48;100.00;62369.91;5043290;28;20029;-67
2023/08/08 07:52:37;;;;;;;3.38;1.65;;;;;;;-144.48;100.00;62369.91;5025232;28;20396;-67
2023/08/08 07:55:03;;;;;;;5.28;1.45;;;;;;;-144.48;100.00;62369.91;5026681;28;20499;-67
2023/08/08 07:57:30;;;;;;;4.10;1.60;;;;;;;-144.48;100.00;62369.91;5037965;28;20382;-66
2023/08/08 07:59:55;;;;;;;3.65;1.48;;;;;;;-144.48;100.00;62369.91;5043775;28;20024;-65
2023/08/08 08:02:21;;;;;;;4.13;1.58;;;;;;;-144.48;100.00;62369.91;5034345;28;20434;-67
2023/08/08 08:04:46;;;;;;;4.05;1.30;;;;;;;-144.48;100.00;62369.91;5026954;28;20506;-68
2023/08/08 08:07:11;;;;;;;3.95;1.40;;;;;;;-144.48;100.00;62369.91;5026869;28;20033;-63
2023/08/08 08:09:37;;;;;;;3.60;1.70;;;;;;;-144.48;100.00;62369.91;5026781;28;20096;-68
2023/08/08 08:12:03;;;;;;;3.47;1.40;;;;;;;-144.48;100.00;62369.91;5026847;28;20057;-63
2023/08/08 08:14:28;;;;;;;4.50;2.05;;;;;;;-144.48;100.00;62369.91;5018609;28;20048;-68
2023/08/08 08:16:53;;;;;;;3.10;1.70;;;;;;;-144.48;100.00;62369.91;5027552;28;20053;-67
2023/08/08 08:19:19;;;;;;;2.97;1.30;;;;;;;-144.48;100.00;62369.91;5023738;28;20429;-67
2023/08/08 08:21:45;;;;;;;1.88;1.10;;;;;;;-144.48;100.00;62369.91;5028143;28;20085;-64
2023/08/08 08:24:10;;;;;;;4.00;1.50;;;;;;;-144.48;100.00;62369.91;5039721;28;20124;-68
2023/08/08 08:26:35;;;;;;;4.32;1.50;;;;;;;-144.48;100.00;62369.91;5029623;28;20064;-68
2023/08/08 08:29:01;;;;;;;6.97;1.60;;;;;;;-144.48;100.00;62369.91;5045267;28;20618;-64
2023/08/08 08:31:26;;;;;;;4.95;1.50;;;;;;;-144.48;100.00;62369.91;5021680;28;20109;-69
2023/08/08 08:33:51;;;;;;;3.53;1.15;;;;;;;-144.48;100.00;62369.91;5028142;28;20026;-65
2023/08/08 08:36:17;;;;;;;11.88;1.67;;;;;;;-144.48;100.00;62369.91;5042143;28;20074;-67
2023/08/08 08:38:42;;;;;;;2.83;1.17;;;;;;;-144.48;100.00;62369.91;5033444;28;20026;-67
2023/08/08 08:41:12;;;;;;;5.32;1.75;;;;;;;-144.48;100.00;62369.91;5012972;28;20128;-69
2023/08/08 08:43:37;;;;;;;5.65;1.90;;;;;;;-144.48;100.00;62369.91;5030212;28;20025;-68
2023/08/08 08:46:03;;;;;;;6.15;1.50;;;;;;;-144.48;100.00;62369.91;5042004;28;20030;-69
2023/08/08 08:48:31;;;;;;;3.42;1.50;;;;;;;-144.48;100.00;62369.91;5016539;28;20032;-69
2023/08/08 08:50:57;;;;;;;6.57;1.90;;;;;;;-144.48;100.00;62369.91;5027904;28;20044;-70
2023/08/08 08:53:23;;;;;;;3.25;1.52;;;;;;;-144.48;100.00;62369.91;5017174;28;20017;-69
2023/08/08 08:55:48;;;;;;;6.40;1.55;;;;;;;-144.48;100.00;62369.91;5034425;28;20052;-67
2023/08/08 08:58:16;;;;;;;3.70;1.50;;;;;;;-144.48;100.00;62369.91;5034598;28;20357;-65
2023/08/08 09:00:44;;;;;;;3.67;1.52;;;;;;;-144.48;100.00;62369.91;5036559;28;20025;-66
2023/08/08 09:03:10;;;;;;;4.47;1.60;;;;;;;-144.48;100.00;62369.91;5027440;28;20026;-65
2023/08/08 09:05:38;;;;;;;4.93;1.70;;;;;;;-144.48;100.00;62369.91;5028446;28;20381;-70
2023/08/08 09:08:03;;;;;;;3.95;1.60;;;;;;;-144.48;100.00;62369.91;5039750;28;20064;-70
2023/08/08 09:10:31;;;;;;;5.63;1.83;;;;;;;-144.48;100.00;62369.91;5021700;28;20072;-66
2023/08/08 09:12:57;;;;;;;6.85;1.70;;;;;;;-144.48;100.00;62369.91;5028124;28;20037;-68
2023/08/08 09:15:22;;;;;;;8.57;2.45;;;;;;;-144.48;100.00;62369.91;5019915;28;20652;-65
2023/08/08 09:17:48;;;;;;;5.88;1.92;;;;;;;-144.48;100.00;62369.91;5026626;28;20079;-69
2023/08/08 09:20:13;;;;;;;6.07;1.95;;;;;;;-144.48;100.00;62369.91;5028439;28;20120;-68
2023/08/08 09:22:39;;;;;;;4.78;1.73;;;;;;;-144.48;100.00;62369.91;5028449;28;20029;-67
2023/08/08 09:25:06;;;;;;;4.95;1.75;;;;;;;-144.48;100.00;62369.91;5032535;28;20021;-67
2023/08/08 09:27:31;;;;;;;3.13;1.42;;;;;;;-144.48;100.00;62369.91;5037316;28;20029;-67
2023/08/08 09:29:57;;;;;;;3.53;1.40;;;;;;;-144.48;100.00;62369.91;5030743;28;20142;-67
2023/08/08 09:32:22;;;;;;;4.25;1.60;;;;;;;-144.48;100.00;62369.91;5029095;28;20104;-67
2023/08/08 09:34:47;;;;;;;7.30;1.48;;;;;;;-144.48;100.00;62369.91;5027840;28;20253;-65
2023/08/08 09:37:14;;;;;;;7.97;1.70;;;;;;;-144.48;100.00;62369.91;5037992;28;20031;-67
2023/08/08 09:39:39;;;;;;;6.53;1.65;;;;;;;-144.48;100.00;62369.91;5029380;28;20079;-67
2023/08/08 09:42:05;;;;;;;4.32;1.55;;;;;;;-144.48;100.00;62369.91;5026901;28;20086;-69
2023/08/08 09:44:34;;;;;;;5.75;1.15;;;;;;;-144.48;100.00;62369.91;5016005;28;20037;-66
2023/08/08 09:47:00;;;;;;;4.10;1.40;;;;;;;-144.48;100.00;62369.91;5028100;28;20428;-69
2023/08/08 09:49:27;;;;;;;2.53;1.20;;;;;;;-144.48;100.00;62369.91;5032906;28;20525;-68
2023/08/08 09:51:52;;;;;;;2.05;1.13;;;;;;;-144.48;100.00;62369.91;5037163;28;20625;-66
2023/08/08 09:54:19;;;;;;;2.20;1.10;;;;;;;-144.48;100.00;62369.91;5040956;28;20020;-66
2023/08/08 09:56:44;;;;;;;7.07;1.42;;;;;;;-144.48;100.00;62369.91;5048370;28;20033;-66
2023/08/08 09:59:13;;;;;;;5.15;1.10;;;;;;;-144.48;100.00;62369.91;5011313;28;20037;-68
2023/08/08 10:01:40;;;;;;;;;;;;;;;-144.48;100.00;62369.91;5025897;28;20034;-68
2023/08/08 10:04:06;;;;;;;6.97;1.55;;;;;;;-144.48;100.00;62369.91;5027133;28;19917;-70
2023/08/08 10:06:31;;;;;;;4.13;1.40;;;;;;;-144.48;100.00;62369.91;5027987;28;20116;-68
2023/08/08 10:08:58;;;;;;;3.50;1.40;;;;;;;-144.48;100.00;62369.91;5018330;28;20041;-69
2023/08/08 10:11:24;;;;;;;5.55;1.40;;;;;;;-144.48;100.00;62369.91;5021108;28;20179;-67
2023/08/08 10:13:52;;;;;;;5.00;1.48;;;;;;;-144.48;100.00;62369.91;5023808;28;20101;-66
2023/08/08 10:16:18;;;;;;;5.45;1.50;;;;;;;-144.48;100.00;62369.91;5021659;28;20101;-68
2023/08/08 10:18:46;;;;;;;3.70;1.38;;;;;;;-144.48;100.00;62369.91;5026870;28;20029;-67
2023/08/08 10:21:12;;;;;;;6.82;1.52;;;;;;;-144.48;100.00;62369.91;5016325;28;20378;-68
2023/08/08 10:23:39;;;;;;;4.05;1.58;;;;;;;-144.48;100.00;62369.91;5034290;28;20040;-68
2023/08/08 10:26:05;;;;;;;3.75;1.02;;;;;;;-144.48;100.00;62369.91;5007874;28;20105;-68
2023/08/08 10:28:34;;;;;;;10.32;1.60;;;;;;;-144.48;100.00;62369.91;5040260;28;20490;-69
2023/08/08 10:31:01;;;;;;;;;;;;;;;-144.48;100.00;62369.91;5015072;28;20030;-70
2023/08/08 10:33:40;;;;;;;3.75;1.40;;;;;;;-144.48;100.00;62369.91;5041273;28;19908;-69
2023/08/08 10:36:07;;;;;;;3.55;1.20;;;;;;;-144.48;100.00;62369.91;5024427;28;20021;-67
2023/08/08 10:38:48;;;;;;;3.75;1.30;;;;;;;-144.48;100.00;62369.91;5009882;28;20041;-68
2023/08/08 10:41:19;;;;;;;5.10;2.20;;;;;;;-144.48;100.00;62369.91;5040146;28;20039;-68
2023/08/08 10:43:56;;;;;;;2.53;1.13;;;;;;;-144.48;100.00;62369.91;5047079;28;20024;-69
2023/08/08 10:46:27;;;;;;;3.58;1.40;;;;;;;-144.48;100.00;62369.91;5025450;28;20048;-69
2023/08/08 10:48:54;;;;;;;5.97;1.20;;;;;;;-144.48;100.00;62369.91;5027440;28;20173;-67
2023/08/08 10:51:20;;;;;;;5.68;1.35;;;;;;;-144.48;100.00;62369.91;5024112;28;20063;-67
2023/08/08 10:53:46;;;;;;;3.95;1.45;;;;;;;-144.48;100.00;62369.91;5014261;28;20104;-69
2023/08/08 10:56:14;;;;;;;3.55;1.38;;;;;;;-144.48;100.00;62369.91;5026144;28;20108;-71
2023/08/08 10:58:41;;;;;;;3.92;1.30;;;;;;;-144.48;100.00;62369.91;5015722;28;20539;-65
2023/08/08 11:01:08;;;;;;;2.63;1.23;;;;;;;-144.48;100.00;62369.91;5028172;28;20116;-71
2023/08/08 11:03:39;;;;;;;4.32;1.40;;;;;;;-144.48;100.00;62369.91;5038744;28;20017;-67